Time;durP1;ratioP1;P1;durP2;ratioP2;P2;SDS_P1;SDS_P2;PMS_P1;PMS_P2;Temp;Humidity;BMP_temperature;BMP_pressure;BME280_temperature;BME280_humidity;BME280_pressure;Samples;Min_cycle;Max_cycle;Signal;HPM_P1;HPM_P2
2024/01/04 00:01:54;;;;;;;39.00;24.00;;;;;;;-0.54;100.00;98198.64;87315;271;137894;-75
2024/01/04 00:03:56;;;;;;;34.20;23.20;;;;;;;-0.54;100.00;98196.27;87328;276;22602;-77
2024/01/04 00:05:58;;;;;;;33.60;23.20;;;;;;;-0.56;100.00;98191.37;87249;264;136369;-75
2024/01/04 00:07:59;;;;;;;36.40;25.60;;;;;;;-0.54;100.00;98192.60;87409;272;25226;-76
2024/01/04 00:10:04;;;;;;;35.70;24.30;;;;;;;-0.56;100.00;98186.56;87291;278;22560;-76
2024/01/04 00:12:06;;;;;;;31.90;23.20;;;;;;;-0.56;100.00;98188.48;87271;272;138553;-75
2024/01/04 00:14:08;;;;;;;32.30;22.60;;;;;;;-0.59;100.00;98189.77;87432;273;22552;-75
2024/01/04 00:16:11;;;;;;;31.80;22.40;;;;;;;-0.63;100.00;98191.62;87349;264;137353;-74
2024/01/04 00:18:12;;;;;;;32.30;24.00;;;;;;;-0.64;100.00;98189.30;87343;268;22555;-75
2024/01/04 00:20:15;;;;;;;32.90;23.10;;;;;;;-0.66;100.00;98192.19;87276;273;137483;-76
2024/01/04 00:22:18;;;;;;;35.60;23.40;;;;;;;-0.63;100.00;98189.65;87314;272;23838;-75
2024/01/04 00:24:20;;;;;;;43.40;25.80;;;;;;;-0.58;100.00;98184.84;87261;269;137687;-77
2024/01/04 00:26:24;;;;;;;37.80;23.10;;;;;;;-0.56;100.00;98184.61;87335;273;25345;-76
2024/01/04 00:28:27;;;;;;;34.10;22.90;;;;;;;-0.54;100.00;98180.38;87312;268;159199;-74
2024/01/04 00:30:31;;;;;;;32.10;22.20;;;;;;;-0.52;100.00;98174.58;87408;268;22556;-75
2024/01/04 00:32:33;;;;;;;40.00;26.00;;;;;;;-0.52;100.00;98173.13;87281;260;138681;-77
2024/01/04 00:34:35;;;;;;;30.10;21.20;;;;;;;-0.47;100.00;98171.08;87229;271;26306;-76
2024/01/04 00:36:37;;;;;;;34.60;22.10;;;;;;;-0.45;100.00;98169.24;87255;272;137243;-75
2024/01/04 00:38:40;;;;;;;37.30;24.40;;;;;;;-0.44;100.00;98165.98;87346;268;22576;-74
2024/01/04 00:40:43;;;;;;;33.60;23.90;;;;;;;-0.41;100.00;98165.33;87342;277;137224;-75
2024/01/04 00:42:46;;;;;;;35.10;22.30;;;;;;;-0.41;100.00;98167.71;87410;273;25344;-74
2024/01/04 00:44:48;;;;;;;32.90;22.10;;;;;;;-0.43;100.00;98166.39;87285;274;138132;-74
2024/01/04 00:46:51;;;;;;;34.90;23.50;;;;;;;-0.41;100.00;98167.06;87376;265;22640;-75
2024/01/04 00:48:52;;;;;;;35.50;24.20;;;;;;;-0.37;100.00;98171.84;87239;277;137456;-76
2024/01/04 00:50:55;;;;;;;34.20;23.90;;;;;;;-0.36;100.00;98171.39;87336;264;25092;-73
2024/01/04 00:52:57;;;;;;;35.00;24.20;;;;;;;-0.33;100.00;98174.58;87225;278;137636;-77
2024/01/04 00:55:09;;;;;;;36.20;25.90;;;;;;;-0.27;100.00;98181.65;87451;272;22638;-74
2024/01/04 00:57:12;;;;;;;38.60;25.70;;;;;;;-0.20;100.00;98182.36;87231;265;138624;-75
2024/01/04 00:59:14;;;;;;;36.60;25.60;;;;;;;-0.15;100.00;98185.45;87436;269;23760;-75
2024/01/04 01:01:18;;;;;;;35.90;24.10;;;;;;;-0.10;100.00;98188.07;87312;271;136555;-75
2024/01/04 01:03:19;;;;;;;40.80;26.10;;;;;;;-0.11;100.00;98182.88;87335;274;22843;-73
2024/01/04 01:05:22;;;;;;;36.60;25.30;;;;;;;-0.11;100.00;98182.02;87397;264;136803;-77
2024/01/04 01:07:24;;;;;;;36.40;25.30;;;;;;;-0.09;100.00;98185.48;87418;276;24535;-67
2024/01/04 01:09:26;;;;;;;37.20;25.00;;;;;;;-0.09;100.00;98182.85;87297;276;137974;-75
2024/01/04 01:11:27;;;;;;;40.10;25.30;;;;;;;-0.03;100.00;98181.08;87416;276;22554;-76
2024/01/04 01:13:29;;;;;;;31.60;22.50;;;;;;;0.07;100.00;98181.22;87264;270;138518;-74
2024/01/04 01:15:31;;;;;;;36.60;25.60;;;;;;;0.11;100.00;98178.91;87322;271;22561;-73
2024/01/04 01:17:33;;;;;;;33.40;24.10;;;;;;;0.16;100.00;98172.31;87288;272;138319;-76
2024/01/04 01:19:37;;;;;;;34.30;24.60;;;;;;;0.20;100.00;98167.83;87352;272;25124;-76
2024/01/04 01:21:39;;;;;;;34.30;24.10;;;;;;;0.23;100.00;98169.86;87375;264;136962;-75
2024/01/04 01:23:41;;;;;;;38.20;25.10;;;;;;;0.25;100.00;98172.35;87356;268;25089;-74
2024/01/04 01:25:43;;;;;;;37.60;24.40;;;;;;;0.28;100.00;98170.53;87309;272;138457;-75
2024/01/04 01:27:47;;;;;;;37.70;25.10;;;;;;;0.30;100.00;98171.82;87407;271;25002;-75
2024/01/04 01:29:49;;;;;;;40.40;25.40;;;;;;;0.29;100.00;98172.94;87284;268;137054;-76
2024/01/04 01:31:51;;;;;;;34.20;23.50;;;;;;;0.29;100.00;98171.92;87417;275;22568;-73
2024/01/04 01:33:55;;;;;;;35.30;24.10;;;;;;;0.33;100.00;98172.35;87288;273;137637;-74
2024/01/04 01:35:57;;;;;;;35.60;22.20;;;;;;;0.35;100.00;98174.21;87391;269;25179;-72
2024/01/04 01:37:59;;;;;;;37.50;24.20;;;;;;;0.35;100.00;98172.14;87459;271;136532;-75
2024/01/04 01:40:01;;;;;;;35.60;23.30;;;;;;;0.34;100.00;98170.31;87494;267;23969;-74
2024/01/04 01:42:04;;;;;;;36.30;24.00;;;;;;;0.36;100.00;98170.40;87372;269;22587;-71
2024/01/04 01:44:06;;;;;;;32.30;23.60;;;;;;;0.41;100.00;98173.86;87377;271;137179;-75
2024/01/04 01:46:08;;;;;;;34.70;24.50;;;;;;;0.43;100.00;98178.56;87309;278;22556;-73
2024/01/04 01:48:13;;;;;;;39.20;25.20;;;;;;;0.45;100.00;98189.40;87201;268;136380;-72
2024/01/04 01:50:19;;;;;;;31.30;23.90;;;;;;;0.45;100.00;98193.03;87468;273;24249;-74
2024/01/04 01:52:21;;;;;;;;;;;;;;;0.39;100.00;98191.77;87314;273;138236;-63
2024/01/04 01:54:24;;;;;;;30.50;19.60;;;;;;;0.32;100.00;98189.63;87359;268;23796;-73
2024/01/04 01:56:27;;;;;;;32.70;22.80;;;;;;;0.27;100.00;98186.77;87213;269;136648;-72
2024/01/04 01:58:31;;;;;;;32.50;22.80;;;;;;;0.27;100.00;98187.94;87343;270;22568;-76
2024/01/04 02:00:33;;;;;;;36.20;26.50;;;;;;;0.27;100.00;98191.17;87205;274;136530;-70
2024/01/04 02:02:36;;;;;;;34.50;22.00;;;;;;;0.33;100.00;98190.33;87396;273;22565;-76
2024/01/04 02:04:40;;;;;;;;;;;;;;;0.34;100.00;98188.42;87304;268;136914;-75
2024/01/04 02:06:42;;;;;;;33.40;23.00;;;;;;;0.35;100.00;98190.27;87269;279;25178;-75
2024/01/04 02:08:46;;;;;;;31.90;21.70;;;;;;;0.35;100.00;98192.59;87352;272;137251;-72
2024/01/04 02:10:48;;;;;;;37.20;24.50;;;;;;;0.33;100.00;98199.02;87467;267;24023;-74
2024/01/04 02:12:50;;;;;;;32.20;21.70;;;;;;;0.30;100.00;98197.53;87188;274;140921;-73
2024/01/04 02:14:54;;;;;;;35.20;24.50;;;;;;;0.26;100.00;98204.89;87290;277;21524;-72
2024/01/04 02:16:56;;;;;;;33.70;23.30;;;;;;;0.23;100.00;98205.45;87316;270;137846;-75
2024/01/04 02:18:59;;;;;;;33.20;23.40;;;;;;;0.18;100.00;98209.66;87379;279;22584;-74
2024/01/04 02:21:01;;;;;;;38.20;26.60;;;;;;;0.17;100.00;98209.13;87360;277;137145;-74
2024/01/04 02:23:03;;;;;;;35.40;22.90;;;;;;;0.17;100.00;98204.52;87283;277;24049;-74
2024/01/04 02:25:06;;;;;;;41.10;24.30;;;;;;;0.20;100.00;98206.12;87236;269;136553;-73
2024/01/04 02:27:08;;;;;;;37.70;24.90;;;;;;;0.24;100.00;98200.80;87460;267;23623;-72
2024/01/04 02:29:10;;;;;;;35.50;24.20;;;;;;;0.27;100.00;98199.92;87278;261;136858;-74
2024/01/04 02:31:12;;;;;;;36.00;23.60;;;;;;;0.30;100.00;98200.42;87326;269;22598;-73
2024/01/04 02:33:14;;;;;;;35.30;22.40;;;;;;;0.33;100.00;98197.80;87325;268;137261;-72
2024/01/04 02:35:16;;;;;;;35.40;23.60;;;;;;;0.37;100.00;98200.30;87309;268;25096;-76
2024/01/04 02:37:18;;;;;;;35.00;22.60;;;;;;;0.41;100.00;98201.24;87186;274;137410;-73
2024/01/04 02:39:21;;;;;;;33.90;23.60;;;;;;;0.40;100.00;98199.45;87411;268;22636;-74
2024/01/04 02:41:25;;;;;;;28.20;20.20;;;;;;;0.40;100.00;98198.48;87213;274;137044;-76
2024/01/04 02:43:28;;;;;;;32.30;21.70;;;;;;;0.40;100.00;98199.86;87374;278;22588;-72
2024/01/04 02:45:30;;;;;;;35.10;21.90;;;;;;;0.41;100.00;98202.34;87238;273;137109;-64
2024/01/04 02:47:31;;;;;;;31.00;21.80;;;;;;;0.43;100.00;98202.08;87355;272;24946;-76
2024/01/04 02:49:34;;;;;;;35.20;24.00;;;;;;;0.46;100.00;98200.36;87313;260;138687;-68
2024/01/04 02:51:36;;;;;;;37.00;24.50;;;;;;;0.49;100.00;98198.83;87374;270;22641;-73
2024/01/04 02:53:38;;;;;;;33.50;22.90;;;;;;;0.53;100.00;98192.73;87236;275;137084;-72
2024/01/04 02:55:40;;;;;;;33.90;22.90;;;;;;;0.57;100.00;98194.02;87326;268;25132;-73
2024/01/04 02:57:42;;;;;;;36.00;24.60;;;;;;;0.59;100.00;98200.66;87300;268;137055;-74
2024/01/04 02:59:44;;;;;;;35.80;24.60;;;;;;;0.60;100.00;98200.02;87378;272;25226;-73
2024/01/04 03:01:48;;;;;;;33.70;22.40;;;;;;;0.60;100.00;98203.14;87264;268;136847;-74
2024/01/04 03:03:51;;;;;;;30.00;20.80;;;;;;;0.57;100.00;98210.63;87443;264;22645;-73
2024/01/04 03:05:54;;;;;;;35.90;23.20;;;;;;;0.49;100.00;98209.25;87380;264;136423;-74
2024/01/04 03:07:56;;;;;;;44.70;25.70;;;;;;;0.44;100.00;98209.75;87417;268;22572;-73
2024/01/04 03:09:58;;;;;;;36.60;24.60;;;;;;;0.36;100.00;98209.05;87378;272;136302;-72
2024/01/04 03:12:02;;;;;;;46.30;25.30;;;;;;;0.31;100.00;98209.25;87544;272;24007;-74
2024/01/04 03:14:05;;;;;;;37.50;24.80;;;;;;;0.34;100.00;98209.06;87416;270;25265;-70
2024/01/04 03:18:03;;;;;;;38.50;24.30;;;;;;;0.22;100.00;98213.61;85216;303;602201;-75
2024/01/04 03:20:06;;;;;;;38.70;26.40;;;;;;;0.26;100.00;98216.17;86372;284;136510;-71
2024/01/04 03:22:08;;;;;;;38.10;25.50;;;;;;;0.26;100.00;98216.63;86406;286;25334;-72
2024/01/04 03:24:10;;;;;;;39.90;24.80;;;;;;;0.28;100.00;98221.00;87311;268;138033;-73
2024/01/04 03:26:12;;;;;;;38.70;24.80;;;;;;;0.34;100.00;98221.33;87213;271;22660;-71
2024/01/04 03:28:14;;;;;;;40.20;23.80;;;;;;;0.36;100.00;98221.61;87231;278;136517;-72
2024/01/04 03:30:16;;;;;;;36.40;25.10;;;;;;;0.38;100.00;98223.09;87283;276;22684;-70
2024/01/04 03:32:18;;;;;;;36.40;23.00;;;;;;;0.42;100.00;98226.34;87204;271;184951;-75
2024/01/04 03:34:20;;;;;;;31.90;22.80;;;;;;;0.45;100.00;98228.61;87294;274;25156;-72
2024/01/04 03:36:22;;;;;;;35.10;22.00;;;;;;;0.42;100.00;98231.98;87287;273;135859;-72
2024/01/04 03:38:24;;;;;;;39.10;27.20;;;;;;;0.38;100.00;98228.33;87367;274;25181;-73
2024/01/04 03:40:25;;;;;;;33.30;22.00;;;;;;;0.38;100.00;98228.52;87321;274;135800;-74
2024/01/04 03:42:27;;;;;;;39.40;25.60;;;;;;;0.39;100.00;98230.13;87338;277;24656;-75
2024/01/04 03:44:29;;;;;;;40.80;26.10;;;;;;;0.41;100.00;98220.91;87212;270;137148;-71
2024/01/04 03:46:31;;;;;;;42.90;26.60;;;;;;;0.42;100.00;98227.62;87308;278;24049;-72
2024/01/04 03:48:33;;;;;;;45.70;26.80;;;;;;;0.41;100.00;98228.09;87309;273;138028;-72
2024/01/04 03:50:35;;;;;;;39.50;26.10;;;;;;;0.40;100.00;98227.40;87363;270;25098;-76
2024/01/04 03:52:37;;;;;;;41.90;26.60;;;;;;;0.41;100.00;98225.96;87270;269;136700;-72
2024/01/04 03:54:39;;;;;;;35.50;26.10;;;;;;;0.43;100.00;98235.38;87308;266;22629;-73
2024/01/04 03:56:40;;;;;;;47.20;26.20;;;;;;;0.46;100.00;98235.13;87219;270;136718;-72
2024/01/04 03:58:45;;;;;;;39.70;26.00;;;;;;;0.50;100.00;98238.84;87418;266;22598;-75
2024/01/04 04:00:47;;;;;;;37.30;24.50;;;;;;;0.52;100.00;98238.41;87291;269;136304;-70
2024/01/04 04:02:51;;;;;;;39.70;26.20;;;;;;;0.50;100.00;98239.43;87330;277;22555;-74
2024/01/04 04:04:56;;;;;;;38.30;26.20;;;;;;;0.46;100.00;98237.10;87250;270;135815;-76
2024/01/04 04:06:58;;;;;;;40.70;26.80;;;;;;;0.43;100.00;98238.45;87446;274;26310;-76
2024/01/04 04:09:00;;;;;;;44.00;26.70;;;;;;;0.41;100.00;98237.83;87261;274;136061;-73
2024/01/04 04:11:03;;;;;;;41.70;27.10;;;;;;;0.43;100.00;98236.36;87364;270;24641;-74
2024/01/04 04:13:06;;;;;;;44.60;28.70;;;;;;;0.49;100.00;98241.83;87304;270;136625;-73
2024/01/04 04:15:08;;;;;;;37.10;25.10;;;;;;;0.53;100.00;98244.11;87349;275;22567;-72
2024/01/04 04:17:11;;;;;;;41.90;27.00;;;;;;;0.56;100.00;98243.77;87362;270;141787;-69
2024/01/04 04:19:13;;;;;;;46.90;27.40;;;;;;;0.55;100.00;98248.39;87348;266;25393;-75
2024/01/04 04:21:23;;;;;;;36.80;25.20;;;;;;;0.53;100.00;98246.61;87293;270;137020;-75
2024/01/04 04:23:25;;;;;;;45.70;26.70;;;;;;;0.54;100.00;98244.00;87428;274;24564;-75
2024/01/04 04:25:29;;;;;;;46.30;28.40;;;;;;;0.57;100.00;98241.56;87297;266;136779;-72
2024/01/04 04:27:30;;;;;;;42.60;27.40;;;;;;;0.62;100.00;98241.42;87371;274;24057;-74
2024/01/04 04:29:32;;;;;;;41.60;26.00;;;;;;;0.65;100.00;98241.20;87157;265;136775;-75
2024/01/04 04:31:34;;;;;;;34.60;24.30;;;;;;;0.67;100.00;98242.17;87321;270;22570;-75
2024/01/04 04:33:35;;;;;;;38.70;25.80;;;;;;;0.71;100.00;98241.19;87212;270;137635;-73
2024/01/04 04:35:39;;;;;;;44.70;27.10;;;;;;;0.69;100.00;98245.64;87411;269;25186;-68
2024/01/04 04:37:55;;;;;;;41.90;27.90;;;;;;;0.63;100.00;98248.44;87193;273;137043;-73
2024/01/04 04:39:57;;;;;;;41.90;26.00;;;;;;;0.58;100.00;98250.73;87315;269;24146;-73
2024/01/04 04:41:59;;;;;;;47.70;28.70;;;;;;;0.49;100.00;98255.39;87085;269;136303;-75
2024/01/04 04:44:01;;;;;;;51.10;31.70;;;;;;;0.40;100.00;98256.75;87293;269;22567;-73
2024/01/04 04:46:09;;;;;;;48.80;27.60;;;;;;;0.34;100.00;98260.07;87170;266;136618;-72
2024/01/04 04:48:11;;;;;;;48.30;29.90;;;;;;;0.30;100.00;98256.40;87294;269;137295;-74
2024/01/04 04:50:13;;;;;;;47.20;28.70;;;;;;;0.27;100.00;98257.59;87322;270;24111;-73
2024/01/04 04:52:15;;;;;;;49.90;29.00;;;;;;;0.27;100.00;98261.14;87175;269;136726;-69
2024/01/04 04:54:17;;;;;;;43.40;27.00;;;;;;;0.26;100.00;98263.70;87428;269;22973;-71
2024/01/04 04:56:19;;;;;;;41.90;26.00;;;;;;;0.26;100.00;98264.32;87239;278;136724;-67
2024/01/04 04:58:21;;;;;;;44.60;27.50;;;;;;;0.28;100.00;98263.73;87308;278;22885;-72
2024/01/04 05:00:23;;;;;;;45.60;27.80;;;;;;;0.29;100.00;98268.69;87191;270;139322;-72
2024/01/04 05:02:27;;;;;;;54.00;30.60;;;;;;;0.33;100.00;98269.68;87314;269;22587;-75
2024/01/04 05:04:29;;;;;;;45.50;28.20;;;;;;;0.37;100.00;98263.39;87248;269;136727;-74
2024/01/04 05:06:31;;;;;;;43.30;26.10;;;;;;;0.43;100.00;98267.33;87251;269;22556;-69
2024/01/04 05:08:33;;;;;;;42.60;26.60;;;;;;;0.45;100.00;98264.81;87202;270;137038;-71
2024/01/04 05:10:38;;;;;;;45.70;28.60;;;;;;;0.46;100.00;98265.73;87268;269;22556;-76
2024/01/04 05:12:39;;;;;;;44.90;29.30;;;;;;;0.46;100.00;98266.42;87216;270;138010;-73
2024/01/04 05:14:41;;;;;;;44.00;25.20;;;;;;;0.47;100.00;98268.80;87354;269;25140;-71
2024/01/04 05:16:44;;;;;;;41.60;27.20;;;;;;;0.49;100.00;98275.35;87260;270;136547;-74
2024/01/04 05:18:46;;;;;;;43.10;27.80;;;;;;;0.50;100.00;98275.26;87462;270;22680;-71
2024/01/04 05:20:48;;;;;;;50.80;29.50;;;;;;;0.52;100.00;98283.42;87291;273;137753;-75
2024/01/04 05:22:50;;;;;;;45.90;27.80;;;;;;;0.53;100.00;98285.70;87360;269;25120;-74
2024/01/04 05:24:52;;;;;;;46.90;30.90;;;;;;;0.54;100.00;98285.92;87294;269;136846;-74
2024/01/04 05:26:54;;;;;;;47.60;30.90;;;;;;;0.56;100.00;98291.71;87324;269;23739;-74
2024/01/04 05:28:56;;;;;;;49.10;32.10;;;;;;;0.55;100.00;98295.81;87262;269;136717;-74
2024/01/04 05:30:57;;;;;;;47.40;30.00;;;;;;;0.57;100.00;98295.73;87272;270;22639;-71
2024/01/04 05:32:59;;;;;;;48.20;29.30;;;;;;;0.62;100.00;98305.54;87145;270;136659;-73
2024/01/04 05:35:02;;;;;;;48.10;29.80;;;;;;;0.64;100.00;98299.89;87186;270;22613;-72
2024/01/04 05:37:04;;;;;;;46.50;29.30;;;;;;;0.62;100.00;98309.38;87262;270;136783;-69
2024/01/04 05:39:06;;;;;;;45.60;28.90;;;;;;;0.61;100.00;98312.16;87278;269;24026;-72
2024/01/04 05:41:08;;;;;;;49.40;30.30;;;;;;;0.60;100.00;98306.50;87180;269;136596;-71
2024/01/04 05:43:09;;;;;;;46.90;30.00;;;;;;;0.60;100.00;98307.88;87335;266;25097;-72
2024/01/04 05:45:11;;;;;;;56.50;30.50;;;;;;;0.58;100.00;98304.74;87231;270;136701;-69
2024/01/04 05:47:13;;;;;;;52.40;28.80;;;;;;;0.58;100.00;98310.13;87469;270;22555;-72
2024/01/04 05:49:15;;;;;;;45.60;28.30;;;;;;;0.56;100.00;98313.13;87263;267;137866;-71
2024/01/04 05:51:17;;;;;;;48.50;30.90;;;;;;;0.54;100.00;98308.11;87324;278;22571;-70
2024/01/04 05:53:19;;;;;;;47.40;29.20;;;;;;;0.55;100.00;98312.04;87279;269;136754;-71
2024/01/04 05:55:20;;;;;;;52.10;29.90;;;;;;;0.56;100.00;98322.77;87356;278;25079;-71
2024/01/04 05:57:27;;;;;;;46.10;26.80;;;;;;;0.57;100.00;98324.73;87245;274;136656;-70
2024/01/04 05:59:28;;;;;;;46.50;29.00;;;;;;;0.61;100.00;98324.91;87407;269;22552;-70
2024/01/04 06:01:30;;;;;;;51.70;31.60;;;;;;;0.58;100.00;98326.70;87301;261;136557;-72
2024/01/04 06:03:32;;;;;;;49.20;31.60;;;;;;;0.60;100.00;98329.55;87289;279;22556;-72
2024/01/04 06:05:34;;;;;;;48.30;30.80;;;;;;;0.61;100.00;98329.08;87238;269;136705;-72
2024/01/04 06:07:36;;;;;;;49.80;31.00;;;;;;;0.62;100.00;98327.27;87357;270;22547;-70
2024/01/04 06:09:38;;;;;;;51.10;32.00;;;;;;;0.63;100.00;98324.66;87283;265;137872;-68
2024/01/04 06:11:40;;;;;;;50.10;31.90;;;;;;;0.64;100.00;98323.52;87299;270;22564;-67
2024/01/04 06:13:42;;;;;;;59.10;33.60;;;;;;;0.63;100.00;98325.55;87198;270;137674;-73
2024/01/04 06:15:45;;;;;;;50.60;27.50;;;;;;;0.61;100.00;98321.90;87429;270;22558;-70
2024/01/04 06:17:47;;;;;;;54.10;30.00;;;;;;;0.57;100.00;98323.89;87315;267;136660;-70
2024/01/04 06:19:51;;;;;;;57.90;32.90;;;;;;;0.53;100.00;98325.55;87324;278;25278;-70
2024/01/04 06:21:54;;;;;;;54.10;31.00;;;;;;;0.54;100.00;98325.30;87215;270;136896;-69
2024/01/04 06:23:56;;;;;;;55.90;34.50;;;;;;;0.53;100.00;98322.47;87204;269;22568;-69
2024/01/04 06:25:59;;;;;;;52.40;29.70;;;;;;;0.53;100.00;98328.85;88815;274;137597;-70
2024/01/04 06:28:00;;;;;;;54.60;32.30;;;;;;;0.54;100.00;98332.61;87319;270;23042;-72
2024/01/04 06:30:04;;;;;;;48.60;32.60;;;;;;;0.50;100.00;98329.44;87322;278;22564;-68
2024/01/04 06:32:08;;;;;;;52.70;32.10;;;;;;;0.48;100.00;98331.74;87238;278;137002;-72
2024/01/04 06:34:09;;;;;;;57.80;32.10;;;;;;;0.48;100.00;98337.47;87423;274;23878;-69
2024/01/04 06:36:11;;;;;;;48.30;27.20;;;;;;;0.48;100.00;98341.70;87228;270;137086;-70
2024/01/04 06:38:14;;;;;;;61.00;33.10;;;;;;;0.46;100.00;98342.98;87363;269;22649;-69
2024/01/04 06:40:19;;;;;;;50.00;30.00;;;;;;;0.43;100.00;98341.77;87215;269;136878;-72
2024/01/04 06:42:21;;;;;;;53.00;33.60;;;;;;;0.38;100.00;98342.96;87319;269;22658;-74
2024/01/04 06:44:23;;;;;;;54.10;33.30;;;;;;;0.36;100.00;98339.02;87329;266;137207;-68
2024/01/04 06:46:38;;;;;;;57.60;32.30;;;;;;;0.36;100.00;98334.63;87336;274;25112;-67
2024/01/04 06:48:40;;;;;;;52.00;31.00;;;;;;;0.36;100.00;98336.73;87224;270;137038;-69
2024/01/04 06:50:45;;;;;;;62.50;34.80;;;;;;;0.31;100.00;98335.54;87315;278;25243;-71
2024/01/04 06:52:47;;;;;;;53.90;30.30;;;;;;;0.28;100.00;98337.48;87189;270;137931;-69
2024/01/04 06:54:50;;;;;;;55.30;31.80;;;;;;;0.23;100.00;98342.10;87350;278;22555;-69
2024/01/04 06:56:52;;;;;;;51.60;31.50;;;;;;;0.18;100.00;98338.89;87335;274;138627;-69
2024/01/04 06:58:55;;;;;;;55.20;36.10;;;;;;;0.17;100.00;98343.69;87292;270;22559;-70
2024/01/04 07:00:59;;;;;;;55.50;32.90;;;;;;;0.17;100.00;98348.96;87289;266;138165;-70
2024/01/04 07:03:01;;;;;;;59.00;33.30;;;;;;;0.20;100.00;98346.38;87304;270;22581;-72
2024/01/04 07:05:06;;;;;;;61.60;34.70;;;;;;;0.23;100.00;98347.50;87321;274;137483;-68
2024/01/04 07:07:08;;;;;;;64.50;36.20;;;;;;;0.26;100.00;98351.19;87343;274;22898;-71
2024/01/04 07:09:09;;;;;;;57.40;33.90;;;;;;;0.28;100.00;98352.14;87239;269;138651;-71
2024/01/04 07:11:11;;;;;;;57.80;33.50;;;;;;;0.31;100.00;98349.75;87242;266;22568;-70
2024/01/04 07:13:15;;;;;;;59.40;33.20;;;;;;;0.35;100.00;98352.71;87160;274;137230;-70
2024/01/04 07:15:17;;;;;;;66.20;34.20;;;;;;;0.37;100.00;98350.28;87263;266;22570;-69
2024/01/04 07:17:19;;;;;;;56.20;33.00;;;;;;;0.36;100.00;98352.80;87169;269;138116;-73
2024/01/04 07:19:22;;;;;;;56.80;33.40;;;;;;;0.33;100.00;98356.77;87366;269;22651;-71
2024/01/04 07:21:24;;;;;;;62.50;37.10;;;;;;;0.28;100.00;98358.27;87248;270;141660;-72
2024/01/04 07:23:26;;;;;;;57.10;35.00;;;;;;;0.26;100.00;98356.88;87285;274;24026;-72
2024/01/04 07:25:27;;;;;;;57.90;34.30;;;;;;;0.27;100.00;98357.37;87277;269;137088;-71
2024/01/04 07:27:29;;;;;;;54.10;33.60;;;;;;;0.30;100.00;98360.27;87348;274;22771;-73
2024/01/04 07:29:31;;;;;;;58.40;32.70;;;;;;;0.32;100.00;98360.83;87226;266;136888;-72
2024/01/04 07:31:35;;;;;;;57.10;35.60;;;;;;;0.30;100.00;98361.32;87337;278;24046;-72
2024/01/04 07:33:36;;;;;;;60.90;35.70;;;;;;;0.26;100.00;98358.62;87272;273;137241;-71
2024/01/04 07:35:38;;;;;;;64.40;35.30;;;;;;;0.26;100.00;98359.69;87312;278;23717;-68
2024/01/04 07:37:40;;;;;;;59.00;32.80;;;;;;;0.27;100.00;98361.40;87247;266;137207;-70
2024/01/04 07:39:42;;;;;;;56.00;31.00;;;;;;;0.28;100.00;98362.83;87366;266;24013;-72
2024/01/04 07:41:44;;;;;;;51.20;30.20;;;;;;;0.27;100.00;98366.17;87289;267;136967;-69
2024/01/04 07:43:49;;;;;;;62.10;35.50;;;;;;;0.25;100.00;98363.34;87265;266;22769;-71
2024/01/04 07:45:51;;;;;;;65.90;34.00;;;;;;;0.25;100.00;98364.75;87193;267;137481;-70
2024/01/04 07:47:53;;;;;;;63.40;39.10;;;;;;;0.25;100.00;98362.27;87316;277;22888;-72
2024/01/04 07:49:55;;;;;;;58.40;34.00;;;;;;;0.28;100.00;98363.55;87176;269;138322;-73
2024/01/04 07:51:57;;;;;;;64.90;36.80;;;;;;;0.31;100.00;98367.05;87225;269;25194;-71
2024/01/04 07:54:01;;;;;;;65.10;34.60;;;;;;;0.33;100.00;98366.32;87207;278;137071;-72
2024/01/04 07:56:05;;;;;;;54.40;36.50;;;;;;;0.32;100.00;98368.28;87244;269;137590;-69
2024/01/04 07:58:07;;;;;;;56.20;31.20;;;;;;;0.33;100.00;98363.40;87360;278;22578;-70
2024/01/04 08:00:09;;;;;;;57.70;34.00;;;;;;;0.35;100.00;98367.65;87352;278;137095;-71
2024/01/04 08:02:15;;;;;;;71.30;42.20;;;;;;;0.33;100.00;98369.59;87402;266;22539;-73
2024/01/04 08:04:17;;;;;;;61.80;35.10;;;;;;;0.36;100.00;98369.12;87248;269;137100;-71
2024/01/04 08:06:19;;;;;;;55.60;33.40;;;;;;;0.39;100.00;98370.09;87318;266;25076;-70
2024/01/04 08:08:21;;;;;;;59.80;34.90;;;;;;;0.44;100.00;98371.63;87230;278;138055;-72
2024/01/04 08:10:23;;;;;;;56.90;35.40;;;;;;;0.46;100.00;98368.19;87349;273;25662;-72
2024/01/04 08:12:25;;;;;;;69.60;35.90;;;;;;;0.47;100.00;98365.20;87237;267;137053;-69
2024/01/04 08:14:27;;;;;;;63.50;35.00;;;;;;;0.51;100.00;98365.83;87302;270;24581;-72
2024/01/04 08:16:30;;;;;;;64.70;34.50;;;;;;;0.53;100.00;98368.02;87210;267;138276;-71
2024/01/04 08:18:35;;;;;;;55.50;31.80;;;;;;;0.57;100.00;98367.77;87285;267;23410;-70
2024/01/04 08:20:39;;;;;;;62.30;34.50;;;;;;;0.63;100.00;98368.04;87217;269;138628;-71
2024/01/04 08:22:41;;;;;;;58.60;33.90;;;;;;;0.66;100.00;98369.30;87286;269;22635;-72
2024/01/04 08:24:43;;;;;;;57.10;35.80;;;;;;;0.71;100.00;98375.82;87123;269;137143;-69
2024/01/04 08:26:44;;;;;;;56.10;36.20;;;;;;;0.77;100.00;98372.20;87298;270;22562;-72
2024/01/04 08:28:46;;;;;;;64.50;38.00;;;;;;;0.84;100.00;98371.34;87194;266;138324;-70
2024/01/04 08:30:48;;;;;;;66.70;38.40;;;;;;;0.90;100.00;98370.52;87361;274;22570;-71
2024/01/04 08:32:53;;;;;;;61.70;36.10;;;;;;;0.94;100.00;98372.00;87305;274;138634;-70
2024/01/04 08:34:55;;;;;;;67.80;39.10;;;;;;;0.99;100.00;98367.80;87713;270;22562;-67
2024/01/04 08:36:58;;;;;;;68.70;38.40;;;;;;;1.03;100.00;98366.95;87173;269;137075;-69
2024/01/04 08:38:59;;;;;;;67.70;41.40;;;;;;;1.08;100.00;98369.08;87327;271;22842;-69
2024/01/04 08:41:01;;;;;;;64.00;38.60;;;;;;;1.10;100.00;98369.16;87112;271;136555;-70
2024/01/04 08:43:06;;;;;;;68.50;39.60;;;;;;;1.11;100.00;98373.36;87368;278;25231;-70
2024/01/04 08:45:10;;;;;;;72.30;41.20;;;;;;;1.10;100.00;98375.91;87389;274;137553;-69
2024/01/04 08:47:12;;;;;;;74.80;42.50;;;;;;;1.11;100.00;98376.53;87355;269;22557;-68
2024/01/04 08:49:14;;;;;;;65.00;40.70;;;;;;;1.13;100.00;98375.99;87233;270;137105;-69
2024/01/04 08:51:16;;;;;;;52.90;33.70;;;;;;;1.15;100.00;98380.60;87427;269;22584;-67
2024/01/04 08:53:20;;;;;;;56.20;36.00;;;;;;;1.15;100.00;98378.38;87179;269;138133;-68
2024/01/04 08:55:23;;;;;;;54.60;34.50;;;;;;;1.10;100.00;98376.63;87336;270;22560;-68
2024/01/04 08:57:24;;;;;;;56.20;34.90;;;;;;;1.07;100.00;98374.86;87166;266;137251;-71
2024/01/04 08:59:26;;;;;;;65.30;40.50;;;;;;;1.04;100.00;98371.73;87123;276;24928;-69
2024/01/04 09:01:30;;;;;;;62.30;40.30;;;;;;;1.04;100.00;98367.02;87318;269;137316;-69
2024/01/04 09:03:32;;;;;;;60.20;39.00;;;;;;;1.08;100.00;98370.82;87318;269;25252;-71
2024/01/04 09:05:34;;;;;;;60.20;37.40;;;;;;;1.10;100.00;98368.09;87202;266;137043;-70
2024/01/04 09:07:37;;;;;;;68.10;40.70;;;;;;;1.14;100.00;98367.09;87264;270;25121;-70
2024/01/04 09:09:42;;;;;;;70.10;42.90;;;;;;;1.18;100.00;98364.58;87271;269;136730;-69
2024/01/04 09:11:48;;;;;;;62.20;37.70;;;;;;;1.24;100.00;98363.87;87505;271;24004;-72
2024/01/04 09:13:50;;;;;;;62.10;38.00;;;;;;;1.27;100.00;98363.52;87345;273;137047;-70
2024/01/04 09:15:53;;;;;;;61.00;38.70;;;;;;;1.28;100.00;98365.14;87303;277;22563;-71
2024/01/04 09:17:55;;;;;;;60.40;38.70;;;;;;;1.29;100.00;98367.59;87233;270;138050;-69
2024/01/04 09:19:57;;;;;;;68.20;39.10;;;;;;;1.32;100.00;98365.75;87417;266;22584;-70
2024/01/04 09:21:59;;;;;;;62.00;38.00;;;;;;;1.35;100.00;98365.83;87227;278;136751;-70
2024/01/04 09:24:01;;;;;;;52.70;35.40;;;;;;;1.39;100.00;98368.34;87283;279;22523;-71
2024/01/04 09:26:08;;;;;;;56.40;34.30;;;;;;;1.40;100.00;98366.27;87363;270;22565;-72
2024/01/04 09:28:10;;;;;;;59.10;36.30;;;;;;;1.38;100.00;98369.46;87340;271;137721;-69
2024/01/04 09:30:13;;;;;;;60.40;34.40;;;;;;;1.37;100.00;98369.70;87344;278;25121;-70